createdAt,value
2024-02-16T00:00:09.344Z,64.43
2024-02-16T00:01:09.322Z,64.13
2024-02-16T00:02:09.268Z,64.46
2024-02-16T00:03:09.312Z,64.42
2024-02-16T00:04:09.328Z,64.33
2024-02-16T00:05:09.538Z,64.35
2024-02-16T00:06:09.290Z,64.46
2024-02-16T00:07:09.341Z,64.60
2024-02-16T00:08:09.270Z,64.62
2024-02-16T00:09:09.254Z,64.58
2024-02-16T00:10:09.316Z,64.47
2024-02-16T00:11:09.253Z,64.61
2024-02-16T00:12:09.262Z,64.71
2024-02-16T00:13:09.261Z,64.69
2024-02-16T00:14:09.258Z,64.60
2024-02-16T00:15:09.357Z,64.49
2024-02-16T00:16:09.287Z,64.20
2024-02-16T00:17:09.298Z,64.03
2024-02-16T00:18:09.368Z,63.93
2024-02-16T00:19:09.380Z,63.91
2024-02-16T00:20:09.391Z,63.87
2024-02-16T00:21:09.431Z,64.31
2024-02-16T00:22:09.394Z,64.63
2024-02-16T00:23:09.372Z,64.69
2024-02-16T00:24:09.357Z,64.72
2024-02-16T00:25:09.388Z,64.92
2024-02-16T00:26:09.493Z,65.36
2024-02-16T00:27:09.595Z,65.40
2024-02-16T00:28:09.505Z,65.42
2024-02-16T00:29:09.533Z,65.23
2024-02-16T00:30:09.679Z,65.26
2024-02-16T00:31:09.769Z,65.67
2024-02-16T00:32:09.696Z,65.89
2024-02-16T00:33:09.918Z,65.90
2024-02-16T00:34:10.040Z,65.79
2024-02-16T00:35:10.068Z,66.02
2024-02-16T00:36:10.226Z,66.16
2024-02-16T00:37:10.041Z,66.18
2024-02-16T00:38:10.198Z,66.07
2024-02-16T00:39:10.194Z,66.09
2024-02-16T00:40:10.339Z,65.81
2024-02-16T00:41:10.276Z,65.55
2024-02-16T00:42:10.416Z,65.35
2024-02-16T00:43:10.384Z,65.22
2024-02-16T00:44:10.385Z,65.36
2024-02-16T00:45:10.630Z,65.51
2024-02-16T00:46:10.505Z,65.51
2024-02-16T00:47:10.501Z,65.27
2024-02-16T00:48:10.583Z,65.44
2024-02-16T00:49:10.665Z,65.47
2024-02-16T00:50:10.880Z,65.48
2024-02-16T00:51:10.812Z,65.39
2024-02-16T00:52:10.756Z,65.37
2024-02-16T00:53:10.844Z,65.36
2024-02-16T00:54:10.966Z,65.43
2024-02-16T00:55:10.992Z,65.38
2024-02-16T00:56:10.987Z,65.57
2024-02-16T00:57:11.136Z,65.73
2024-02-16T00:58:11.095Z,65.82
2024-02-16T00:59:11.107Z,65.73
2024-02-16T01:00:11.188Z,65.57
2024-02-16T01:01:11.125Z,65.51
2024-02-16T01:02:11.222Z,65.34
2024-02-16T01:03:11.256Z,65.19
2024-02-16T01:04:11.304Z,65.20
2024-02-16T01:05:11.789Z,65.17
2024-02-16T01:06:11.350Z,65.15
2024-02-16T01:07:11.416Z,65.17
2024-02-16T01:08:11.408Z,65.08
2024-02-16T01:09:11.419Z,65.11
2024-02-16T01:10:11.442Z,65.04
2024-02-16T01:11:11.525Z,64.81
2024-02-16T01:12:11.546Z,64.72
2024-02-16T01:13:11.487Z,64.68
2024-02-16T01:14:11.568Z,64.46
2024-02-16T01:15:11.668Z,64.47
2024-02-16T01:16:11.680Z,64.27
2024-02-16T01:17:11.657Z,64.11
2024-02-16T01:18:11.789Z,64.01
2024-02-16T01:19:11.902Z,63.63
2024-02-16T01:20:12.468Z,63.46
2024-02-16T01:21:11.877Z,63.16
2024-02-16T01:22:11.860Z,62.84
2024-02-16T01:23:11.877Z,62.91
2024-02-16T01:24:12.128Z,62.98
2024-02-16T01:25:12.000Z,62.93
2024-02-16T01:26:12.055Z,63.01
2024-02-16T01:27:12.097Z,63.25
2024-02-16T01:28:12.140Z,63.81
2024-02-16T01:29:12.163Z,64.24
2024-02-16T01:30:12.496Z,64.55
2024-02-16T01:31:12.262Z,64.70
2024-02-16T01:32:12.339Z,64.84
2024-02-16T01:33:12.430Z,64.96
2024-02-16T01:34:12.519Z,65.12
2024-02-16T01:35:12.681Z,65.30
2024-02-16T01:36:12.533Z,65.12
2024-02-16T01:37:12.582Z,65.33
2024-02-16T01:38:12.537Z,65.68
2024-02-16T01:39:12.765Z,65.84
2024-02-16T01:40:12.864Z,65.95
2024-02-16T01:41:12.823Z,65.96
2024-02-16T01:42:12.834Z,65.94
2024-02-16T01:43:12.812Z,66.02
2024-02-16T01:44:12.831Z,65.93
2024-02-16T01:45:12.902Z,65.69
2024-02-16T01:46:12.936Z,65.69
2024-02-16T01:47:13.003Z,66.09
2024-02-16T01:48:13.216Z,66.39
2024-02-16T01:49:13.109Z,66.23
2024-02-16T01:50:13.110Z,65.95
2024-02-16T01:51:13.149Z,65.66
2024-02-16T01:52:13.132Z,65.63
2024-02-16T01:53:13.174Z,65.51
2024-02-16T01:54:13.271Z,65.48
2024-02-16T01:55:13.284Z,65.71
2024-02-16T01:56:13.249Z,66.18
2024-02-16T01:57:13.313Z,66.49
2024-02-16T01:58:13.272Z,66.26
2024-02-16T01:59:13.297Z,66.03
2024-02-16T02:00:13.346Z,65.91
2024-02-16T02:01:13.325Z,65.72
2024-02-16T02:02:13.289Z,65.56
2024-02-16T02:03:13.327Z,65.38
2024-02-16T02:04:13.316Z,65.35
2024-02-16T02:05:13.479Z,65.32
2024-02-16T02:06:13.478Z,65.12
2024-02-16T02:07:13.422Z,64.73
2024-02-16T02:08:13.347Z,64.60
2024-02-16T02:09:13.793Z,64.49
2024-02-16T02:10:13.418Z,65.00
2024-02-16T02:11:13.418Z,65.19
2024-02-16T02:12:13.514Z,65.25
2024-02-16T02:13:13.362Z,65.52
2024-02-16T02:14:13.429Z,65.75
2024-02-16T02:15:13.632Z,65.85
2024-02-16T02:16:13.632Z,65.66
2024-02-16T02:17:13.572Z,65.71
2024-02-16T02:18:14.686Z,65.47
2024-02-16T02:19:13.713Z,66.03
2024-02-16T02:20:13.809Z,65.69
2024-02-16T02:21:13.676Z,65.15
2024-02-16T02:22:13.721Z,65.10
2024-02-16T02:23:13.854Z,65.25
2024-02-16T02:24:13.889Z,65.31
2024-02-16T02:25:13.885Z,65.65
2024-02-16T02:26:13.900Z,65.82
2024-02-16T02:27:14.023Z,66.07
2024-02-16T02:28:13.996Z,65.94
2024-02-16T02:29:14.036Z,66.07
2024-02-16T02:30:14.242Z,65.96
2024-02-16T02:31:14.132Z,66.24
2024-02-16T02:32:14.239Z,66.29
2024-02-16T02:33:14.370Z,66.04
2024-02-16T02:34:14.332Z,65.85
2024-02-16T02:35:14.406Z,65.51
2024-02-16T02:36:14.526Z,65.33
2024-02-16T02:37:14.379Z,65.14
2024-02-16T02:38:14.461Z,65.10
2024-02-16T02:39:14.428Z,65.17
2024-02-16T02:40:15.025Z,64.98
2024-02-16T02:41:14.472Z,64.80
2024-02-16T02:42:14.570Z,64.93
2024-02-16T02:43:14.532Z,64.89
2024-02-16T02:44:14.535Z,64.95
2024-02-16T02:45:14.775Z,64.83
2024-02-16T02:46:14.655Z,64.96
2024-02-16T02:47:14.710Z,65.15
2024-02-16T02:48:14.976Z,64.99
2024-02-16T02:49:14.928Z,64.87
2024-02-16T02:50:14.883Z,65.01
2024-02-16T02:51:14.968Z,65.12
2024-02-16T02:52:15.051Z,65.11
2024-02-16T02:53:15.068Z,65.10
2024-02-16T02:54:15.145Z,65.11
2024-02-16T02:55:15.217Z,65.11
2024-02-16T02:56:15.211Z,65.06
2024-02-16T02:57:15.270Z,65.51
2024-02-16T02:58:15.258Z,65.85
2024-02-16T02:59:15.230Z,66.04
2024-02-16T03:00:15.484Z,65.96
2024-02-16T03:01:15.465Z,65.93
2024-02-16T03:02:15.495Z,66.00
2024-02-16T03:03:15.572Z,66.00
2024-02-16T03:04:15.625Z,65.99
2024-02-16T03:05:15.506Z,66.11
2024-02-16T03:06:15.615Z,66.38
2024-02-16T03:07:15.644Z,66.39
2024-02-16T03:08:15.717Z,66.45
2024-02-16T03:09:15.736Z,66.53
2024-02-16T03:10:15.594Z,66.45
2024-02-16T03:11:15.685Z,66.62
2024-02-16T03:12:15.809Z,66.65
2024-02-16T03:13:15.710Z,66.67
2024-02-16T03:14:15.758Z,66.50
2024-02-16T03:15:15.904Z,66.45
2024-02-16T03:16:15.856Z,66.11
2024-02-16T03:17:15.852Z,65.82
2024-02-16T03:18:16.085Z,65.71
2024-02-16T03:19:16.044Z,66.37
2024-02-16T03:20:16.064Z,66.55
2024-02-16T03:21:16.075Z,66.67
2024-02-16T03:22:16.124Z,66.73
2024-02-16T03:23:16.119Z,66.89
2024-02-16T03:24:16.147Z,66.90
2024-02-16T03:25:16.427Z,66.89
2024-02-16T03:26:16.327Z,66.86
2024-02-16T03:27:16.409Z,66.88
2024-02-16T03:28:16.376Z,66.86
2024-02-16T03:29:16.458Z,66.83
2024-02-16T03:30:16.536Z,66.76
2024-02-16T03:31:16.475Z,66.58
2024-02-16T03:32:16.546Z,66.74
2024-02-16T03:33:16.610Z,66.77
2024-02-16T03:34:16.923Z,66.48
2024-02-16T03:35:16.608Z,66.65
2024-02-16T03:36:16.758Z,66.97
2024-02-16T03:37:16.629Z,66.94
2024-02-16T03:38:16.627Z,66.89
2024-02-16T03:39:16.761Z,66.82
2024-02-16T03:40:16.719Z,66.61
2024-02-16T03:41:16.762Z,66.47
2024-02-16T03:42:16.883Z,66.27
2024-02-16T03:43:16.870Z,66.33
2024-02-16T03:44:16.883Z,66.66
2024-02-16T03:45:17.011Z,66.95
2024-02-16T03:46:16.920Z,66.63
2024-02-16T03:47:18.030Z,66.47
2024-02-16T03:48:17.251Z,66.48
2024-02-16T03:49:17.097Z,66.74
2024-02-16T03:50:16.926Z,66.70
2024-02-16T03:51:17.002Z,66.63
2024-02-16T03:52:16.920Z,66.31
2024-02-16T03:53:16.944Z,66.01
2024-02-16T03:54:17.041Z,65.57
2024-02-16T03:55:16.969Z,65.42
2024-02-16T03:56:16.947Z,65.91
2024-02-16T03:57:17.004Z,65.97
2024-02-16T03:58:16.982Z,65.94
2024-02-16T03:59:16.952Z,65.99
2024-02-16T04:00:17.074Z,66.11
2024-02-16T04:01:17.102Z,65.91
2024-02-16T04:02:16.918Z,65.78
2024-02-16T04:03:16.921Z,66.09
2024-02-16T04:04:16.981Z,66.55
2024-02-16T04:05:17.508Z,66.47
2024-02-16T04:06:17.045Z,66.43
2024-02-16T04:07:17.057Z,65.89
2024-02-16T04:08:17.037Z,65.94
2024-02-16T04:09:17.103Z,65.98
2024-02-16T04:10:17.187Z,65.84
2024-02-16T04:11:17.219Z,65.79
2024-02-16T04:12:17.185Z,65.85
2024-02-16T04:13:17.230Z,65.88
2024-02-16T04:14:17.246Z,65.92
2024-02-16T04:15:17.340Z,65.78
2024-02-16T04:16:17.298Z,65.85
2024-02-16T04:17:17.273Z,66.70
2024-02-16T04:18:17.390Z,67.72
2024-02-16T04:19:17.453Z,67.78
2024-02-16T04:20:17.425Z,67.39
2024-02-16T04:21:17.429Z,66.97
2024-02-16T04:22:17.462Z,67.17
2024-02-16T04:23:17.542Z,67.45
2024-02-16T04:24:17.619Z,67.23
2024-02-16T04:25:17.618Z,66.69
2024-02-16T04:26:17.648Z,66.39
2024-02-16T04:27:17.745Z,66.20
2024-02-16T04:28:17.734Z,66.01
2024-02-16T04:29:17.780Z,65.91
2024-02-16T04:30:17.860Z,65.92
2024-02-16T04:31:17.828Z,65.95
2024-02-16T04:32:17.839Z,65.86
2024-02-16T04:33:18.116Z,65.97
2024-02-16T04:34:18.059Z,65.93
2024-02-16T04:35:18.168Z,65.90
2024-02-16T04:36:18.028Z,65.85
2024-02-16T04:37:18.076Z,65.71
2024-02-16T04:38:18.088Z,66.25
2024-02-16T04:39:18.177Z,67.19
2024-02-16T04:40:18.221Z,67.46
2024-02-16T04:41:18.287Z,67.53
2024-02-16T04:42:18.331Z,67.47
2024-02-16T04:43:18.220Z,67.12
2024-02-16T04:44:18.299Z,66.62
2024-02-16T04:45:18.490Z,66.33
2024-02-16T04:46:18.340Z,66.20
2024-02-16T04:47:18.433Z,66.10
2024-02-16T04:48:18.559Z,66.09
2024-02-16T04:49:18.669Z,66.17
2024-02-16T04:50:18.518Z,66.25
2024-02-16T04:51:18.538Z,66.37
2024-02-16T04:52:18.563Z,66.46
2024-02-16T04:53:18.625Z,66.50
2024-02-16T04:54:18.672Z,66.42
2024-02-16T04:55:18.832Z,66.55
2024-02-16T04:56:18.780Z,66.70
2024-02-16T04:57:18.748Z,66.45
2024-02-16T04:58:18.757Z,66.33
2024-02-16T04:59:18.827Z,66.39
2024-02-16T05:00:18.957Z,66.41
2024-02-16T05:01:18.946Z,66.26
2024-02-16T05:02:26.466Z,66.14
2024-02-16T05:03:26.578Z,65.90
2024-02-16T05:04:26.506Z,65.78
2024-02-16T05:05:26.587Z,65.82
2024-02-16T05:06:26.662Z,65.76
2024-02-16T05:07:26.531Z,65.76
2024-02-16T05:08:26.562Z,65.76
2024-02-16T05:09:26.559Z,65.75
2024-02-16T05:10:26.660Z,65.72
2024-02-16T05:11:26.639Z,65.52
2024-02-16T05:12:26.582Z,65.58
2024-02-16T05:13:26.513Z,65.66
2024-02-16T05:14:26.600Z,66.00
2024-02-16T05:15:26.579Z,66.02
2024-02-16T05:16:26.528Z,66.13
2024-02-16T05:17:26.650Z,66.35
2024-02-16T05:18:26.695Z,66.44
2024-02-16T05:19:26.692Z,66.31
2024-02-16T05:20:26.657Z,66.32
2024-02-16T05:21:26.617Z,66.15
2024-02-16T05:22:26.606Z,66.08
2024-02-16T05:23:26.466Z,66.00
2024-02-16T05:24:26.538Z,66.00
2024-02-16T05:25:26.599Z,65.99
2024-02-16T05:26:26.510Z,66.31
2024-02-16T05:27:26.609Z,66.54
2024-02-16T05:28:26.525Z,67.01
2024-02-16T05:29:26.537Z,67.23
2024-02-16T05:30:26.693Z,67.27
2024-02-16T05:31:26.541Z,67.18
2024-02-16T05:32:26.595Z,67.18
2024-02-16T05:33:26.644Z,67.28
2024-02-16T05:34:26.671Z,67.34
2024-02-16T05:35:26.574Z,67.63
2024-02-16T05:36:26.602Z,67.81
2024-02-16T05:37:26.557Z,68.17
2024-02-16T05:38:26.627Z,68.24
2024-02-16T05:39:26.646Z,68.37
2024-02-16T05:40:26.630Z,68.68
2024-02-16T05:41:26.501Z,69.47
2024-02-16T05:42:26.558Z,69.92
2024-02-16T05:43:26.537Z,70.68
2024-02-16T05:44:26.631Z,70.90
2024-02-16T05:45:26.711Z,70.49
2024-02-16T05:46:26.539Z,70.54
2024-02-16T05:47:26.553Z,70.56
2024-02-16T05:48:26.628Z,70.26
2024-02-16T05:49:26.667Z,70.09
2024-02-16T05:50:26.768Z,69.96
2024-02-16T05:51:26.658Z,69.90
2024-02-16T05:52:26.784Z,69.84
2024-02-16T05:53:26.765Z,69.45
2024-02-16T05:54:26.812Z,69.14
2024-02-16T05:55:26.876Z,68.98
2024-02-16T05:56:26.920Z,68.82
2024-02-16T05:57:26.968Z,68.52
2024-02-16T05:58:26.920Z,68.16
2024-02-16T05:59:27.052Z,67.79
2024-02-16T06:00:27.600Z,67.67
2024-02-16T06:01:27.171Z,67.58
2024-02-16T06:02:27.160Z,67.44
2024-02-16T06:03:27.185Z,67.27
2024-02-16T06:04:27.321Z,67.31
2024-02-16T06:05:27.407Z,67.46
2024-02-16T06:06:27.424Z,67.45
2024-02-16T06:07:27.532Z,67.44
2024-02-16T06:08:30.617Z,67.44
2024-02-16T06:09:27.510Z,67.30
2024-02-16T06:10:27.454Z,67.14
2024-02-16T06:11:27.536Z,67.16
2024-02-16T06:12:27.489Z,67.15
2024-02-16T06:13:27.451Z,67.39
2024-02-16T06:14:27.457Z,67.53
2024-02-16T06:15:27.589Z,67.42
2024-02-16T06:16:27.485Z,67.39
2024-02-16T06:17:27.464Z,67.37
2024-02-16T06:18:27.571Z,67.35
2024-02-16T06:19:27.584Z,67.08
2024-02-16T06:20:27.503Z,66.81
2024-02-16T06:21:27.507Z,66.88
2024-02-16T06:22:27.461Z,66.79
2024-02-16T06:23:27.560Z,66.76
2024-02-16T06:24:27.530Z,66.79
2024-02-16T06:25:27.526Z,66.83
2024-02-16T06:26:27.522Z,66.82
2024-02-16T06:27:27.544Z,66.59
2024-02-16T06:28:27.425Z,66.41
2024-02-16T06:29:27.432Z,66.32
2024-02-16T06:30:27.593Z,66.37
2024-02-16T06:31:27.570Z,66.52
2024-02-16T06:32:27.590Z,66.41
2024-02-16T06:33:27.561Z,66.38
2024-02-16T06:34:27.588Z,66.30
2024-02-16T06:35:27.455Z,66.27
2024-02-16T06:36:27.575Z,66.27
2024-02-16T06:37:27.476Z,66.29
2024-02-16T06:38:27.508Z,66.29
2024-02-16T06:39:27.531Z,66.21
2024-02-16T06:40:27.573Z,66.15
2024-02-16T06:41:27.599Z,66.01
2024-02-16T06:42:27.591Z,65.87
2024-02-16T06:43:27.534Z,65.80
2024-02-16T06:44:27.539Z,65.79
2024-02-16T06:45:27.440Z,65.76
2024-02-16T06:46:27.623Z,66.12
2024-02-16T06:47:27.545Z,66.48
2024-02-16T06:48:27.611Z,66.49
2024-02-16T06:49:27.629Z,66.74
2024-02-16T06:50:27.544Z,67.09
2024-02-16T06:51:27.724Z,67.32
2024-02-16T06:52:27.504Z,67.51
2024-02-16T06:53:27.507Z,67.43
2024-02-16T06:54:27.556Z,67.51
2024-02-16T06:55:27.511Z,67.92
2024-02-16T06:56:27.574Z,67.89
2024-02-16T06:57:27.519Z,67.71
2024-02-16T06:58:27.569Z,67.51
2024-02-16T06:59:27.623Z,67.13
2024-02-16T07:00:27.658Z,66.90
2024-02-16T07:01:27.729Z,66.82
2024-02-16T07:02:27.674Z,66.73
2024-02-16T07:03:27.784Z,66.59
2024-02-16T07:04:27.850Z,66.33
2024-02-16T07:05:27.870Z,66.04
2024-02-16T07:06:28.072Z,65.77
2024-02-16T07:07:28.055Z,65.68
2024-02-16T07:08:28.002Z,65.61
2024-02-16T07:09:28.138Z,65.48
2024-02-16T07:10:28.068Z,65.38
2024-02-16T07:11:28.194Z,65.41
2024-02-16T07:12:28.212Z,65.41
2024-02-16T07:13:28.223Z,65.38
2024-02-16T07:14:28.240Z,65.17
2024-02-16T07:15:28.366Z,64.87
2024-02-16T07:16:28.313Z,64.58
2024-02-16T07:17:28.388Z,64.07
2024-02-16T07:18:28.636Z,63.34
2024-02-16T07:19:28.553Z,62.53
2024-02-16T07:20:28.511Z,61.70
2024-02-16T07:21:28.598Z,60.93
2024-02-16T07:22:28.511Z,60.32
2024-02-16T07:23:28.614Z,59.77
2024-02-16T07:24:28.726Z,59.10
2024-02-16T07:25:28.693Z,58.68
2024-02-16T07:26:29.164Z,58.02
2024-02-16T07:27:28.788Z,57.19
2024-02-16T07:28:28.774Z,56.41
2024-02-16T07:29:28.858Z,55.72
2024-02-16T07:30:36.875Z,56.44
2024-02-16T07:31:29.893Z,57.55
2024-02-16T07:32:28.896Z,57.77
2024-02-16T07:33:29.053Z,58.03
2024-02-16T07:34:28.973Z,58.06
2024-02-16T07:35:28.895Z,57.33
2024-02-16T07:36:28.953Z,56.56
2024-02-16T07:37:28.885Z,55.35
2024-02-16T07:38:28.858Z,56.33
2024-02-16T07:39:28.990Z,56.85
2024-02-16T07:40:28.835Z,57.04
2024-02-16T07:41:28.889Z,57.57
2024-02-16T07:42:28.995Z,57.18
2024-02-16T07:43:28.868Z,56.26
2024-02-16T07:44:28.876Z,54.72
2024-02-16T07:45:29.146Z,54.67
2024-02-16T07:46:28.915Z,54.98
2024-02-16T07:47:29.039Z,55.45
2024-02-16T07:48:29.123Z,55.63
2024-02-16T07:49:29.097Z,55.46
2024-02-16T07:50:29.113Z,55.42
2024-02-16T07:51:29.101Z,55.85
2024-02-16T07:52:29.148Z,56.29
2024-02-16T07:53:29.224Z,56.16
2024-02-16T07:54:29.256Z,55.53
2024-02-16T07:55:29.285Z,54.68
2024-02-16T07:56:29.414Z,53.97
2024-02-16T07:57:29.349Z,54.35
2024-02-16T07:58:29.353Z,55.96
2024-02-16T07:59:29.379Z,57.34
2024-02-16T08:00:29.459Z,57.64
2024-02-16T08:01:29.480Z,57.36
2024-02-16T08:02:29.462Z,56.92
2024-02-16T08:03:29.548Z,57.19
2024-02-16T08:04:29.547Z,57.67
2024-02-16T08:05:29.667Z,57.54
2024-02-16T08:06:29.943Z,57.49
2024-02-16T08:07:29.904Z,57.95
2024-02-16T08:08:29.636Z,58.89
2024-02-16T08:09:29.813Z,59.42
2024-02-16T08:10:29.757Z,59.31
2024-02-16T08:11:29.878Z,58.83
2024-02-16T08:12:29.841Z,58.25
2024-02-16T08:13:29.867Z,57.39
2024-02-16T08:14:29.944Z,55.87
2024-02-16T08:15:30.077Z,54.94
2024-02-16T08:16:30.021Z,54.20
2024-02-16T08:17:30.018Z,53.03
2024-02-16T08:18:30.210Z,52.31
2024-02-16T08:19:30.088Z,52.08
2024-02-16T08:20:30.078Z,51.64
2024-02-16T08:21:30.162Z,51.59
2024-02-16T08:22:30.102Z,51.48
2024-02-16T08:23:30.120Z,51.05
2024-02-16T08:24:30.206Z,50.53
2024-02-16T08:25:30.136Z,50.41
2024-02-16T08:26:30.144Z,50.32
2024-02-16T08:27:30.244Z,50.15
2024-02-16T08:28:30.073Z,49.75
2024-02-16T08:29:30.099Z,50.88
2024-02-16T08:30:30.295Z,51.66
2024-02-16T08:31:30.073Z,51.13
2024-02-16T08:32:30.111Z,50.84
2024-02-16T08:33:30.351Z,51.13
2024-02-16T08:34:30.276Z,51.86
2024-02-16T08:35:30.283Z,52.68
2024-02-16T08:36:30.374Z,53.43
2024-02-16T08:37:30.460Z,54.25
2024-02-16T08:38:30.519Z,53.62
2024-02-16T08:39:30.469Z,53.00
2024-02-16T08:40:30.429Z,51.80
2024-02-16T08:41:30.561Z,50.70
2024-02-16T08:42:30.595Z,50.47
2024-02-16T08:43:30.572Z,50.92
2024-02-16T08:44:30.553Z,50.78
2024-02-16T08:45:30.735Z,51.29
2024-02-16T08:46:30.915Z,51.64
2024-02-16T08:47:30.826Z,51.32
2024-02-16T08:48:30.959Z,50.94
2024-02-16T08:49:30.860Z,50.44
2024-02-16T08:50:30.804Z,50.25
2024-02-16T08:51:31.082Z,50.10
2024-02-16T08:52:30.918Z,51.77
2024-02-16T08:53:30.959Z,53.69
2024-02-16T08:54:31.096Z,53.48
2024-02-16T08:55:31.157Z,53.01
2024-02-16T08:56:31.667Z,52.89
2024-02-16T08:57:31.312Z,52.51
2024-02-16T08:58:31.261Z,51.85
2024-02-16T08:59:31.287Z,52.73
2024-02-16T09:00:31.507Z,51.62
2024-02-16T09:01:31.411Z,51.11
2024-02-16T09:02:31.415Z,51.52
2024-02-16T09:03:31.532Z,52.07
2024-02-16T09:04:31.457Z,51.58
2024-02-16T09:05:31.723Z,51.23
2024-02-16T09:06:31.823Z,50.99
2024-02-16T09:07:31.619Z,50.69
2024-02-16T09:08:31.640Z,50.65
2024-02-16T09:09:31.723Z,49.84
2024-02-16T09:10:31.805Z,49.41
2024-02-16T09:11:31.809Z,49.73
2024-02-16T09:12:31.808Z,49.33
2024-02-16T09:13:33.912Z,49.12
2024-02-16T09:14:31.651Z,48.31
2024-02-16T09:15:31.754Z,48.70
2024-02-16T09:16:31.716Z,48.39
2024-02-16T09:17:31.701Z,48.08
2024-02-16T09:18:31.769Z,49.03
2024-02-16T09:19:31.787Z,49.49
2024-02-16T09:20:32.106Z,48.96
2024-02-16T09:21:31.932Z,48.44
2024-02-16T09:23:31.697Z,48.26
2024-02-16T09:24:31.821Z,49.00
2024-02-16T09:25:31.662Z,48.89
2024-02-16T09:26:31.869Z,48.58
2024-02-16T09:27:31.732Z,48.73
2024-02-16T09:28:31.688Z,49.21
2024-02-16T09:29:31.660Z,49.21
2024-02-16T09:30:31.747Z,48.72
2024-02-16T09:31:31.696Z,48.47
2024-02-16T09:32:31.696Z,47.94
2024-02-16T09:33:31.852Z,47.40
2024-02-16T09:34:31.840Z,47.33
2024-02-16T09:35:31.726Z,47.42
2024-02-16T09:36:31.938Z,46.88
2024-02-16T09:37:31.702Z,45.39
2024-02-16T09:38:31.728Z,44.71
2024-02-16T09:39:31.740Z,45.12
2024-02-16T09:40:31.689Z,45.08
2024-02-16T09:41:31.760Z,45.16
2024-02-16T09:42:31.797Z,44.69
2024-02-16T09:43:31.709Z,45.21
2024-02-16T09:44:31.786Z,45.12
2024-02-16T09:45:31.793Z,45.81
2024-02-16T09:46:31.804Z,44.89
2024-02-16T09:47:31.800Z,44.01
2024-02-16T09:48:31.942Z,44.11
2024-02-16T09:49:38.985Z,44.40
2024-02-16T09:50:32.946Z,44.47
2024-02-16T09:51:31.887Z,43.30
2024-02-16T09:52:31.714Z,42.05
2024-02-16T09:53:31.794Z,41.10
2024-02-16T09:54:31.736Z,41.62
2024-02-16T09:55:31.718Z,43.28
2024-02-16T09:56:31.787Z,44.51
2024-02-16T09:57:31.890Z,44.73
2024-02-16T09:58:31.789Z,44.19
2024-02-16T09:59:31.781Z,44.95
2024-02-16T10:00:31.876Z,46.22
2024-02-16T10:01:31.822Z,46.47
2024-02-16T10:02:31.836Z,46.21
2024-02-16T10:03:31.885Z,45.96
2024-02-16T10:04:35.652Z,45.43
2024-02-16T10:05:32.878Z,45.06
2024-02-16T10:06:31.867Z,45.21
2024-02-16T10:07:31.915Z,45.43
2024-02-16T10:08:31.811Z,45.56
2024-02-16T10:09:31.933Z,45.33
2024-02-16T10:10:31.824Z,45.17
2024-02-16T10:11:32.050Z,44.69
2024-02-16T10:12:31.938Z,44.36
2024-02-16T10:13:31.860Z,42.41
2024-02-16T10:14:31.878Z,42.52
2024-02-16T10:15:31.893Z,42.87
2024-02-16T10:16:31.878Z,42.70
2024-02-16T10:17:31.970Z,43.19
2024-02-16T10:18:32.147Z,42.85
2024-02-16T10:19:31.991Z,42.18
2024-02-16T10:20:31.967Z,42.36
2024-02-16T10:21:32.349Z,41.75
2024-02-16T10:22:47.168Z,41.85
2024-02-16T10:24:32.052Z,41.30
2024-02-16T10:25:33.484Z,41.23
2024-02-16T10:26:32.075Z,42.15
2024-02-16T10:27:32.077Z,42.85
2024-02-16T10:28:31.965Z,42.41
2024-02-16T10:29:31.975Z,42.10
2024-02-16T10:30:32.058Z,42.82
2024-02-16T10:31:32.206Z,42.93
2024-02-16T10:32:32.025Z,41.81
2024-02-16T10:33:32.153Z,41.73
2024-02-16T10:34:32.086Z,42.53
2024-02-16T10:35:31.999Z,43.00
2024-02-16T10:36:32.156Z,43.16
2024-02-16T10:37:32.038Z,43.54
2024-02-16T10:38:32.036Z,43.54
2024-02-16T10:39:32.117Z,43.03
2024-02-16T10:40:32.073Z,43.40
2024-02-16T10:41:32.084Z,43.09
2024-02-16T10:42:32.096Z,42.93
2024-02-16T10:43:32.174Z,42.28
2024-02-16T10:44:32.055Z,42.09
2024-02-16T10:45:32.153Z,41.98
2024-02-16T10:46:32.068Z,42.27
2024-02-16T10:47:32.099Z,41.56
2024-02-16T10:48:32.192Z,40.72
2024-02-16T10:49:32.298Z,40.27
2024-02-16T10:50:32.186Z,41.25
2024-02-16T10:51:32.113Z,41.52
2024-02-16T10:52:32.113Z,41.17
2024-02-16T10:53:32.130Z,40.55
2024-02-16T10:54:32.073Z,40.34
2024-02-16T10:55:32.086Z,39.89
2024-02-16T10:56:32.165Z,39.91
2024-02-16T10:57:32.154Z,40.04
2024-02-16T10:58:32.074Z,40.23
2024-02-16T10:59:32.093Z,40.41
2024-02-16T11:00:32.406Z,40.08
2024-02-16T11:01:32.251Z,39.31
2024-02-16T11:02:32.336Z,38.20
2024-02-16T11:03:33.296Z,37.10
2024-02-16T11:04:32.390Z,36.59
2024-02-16T11:05:32.360Z,36.01
2024-02-16T11:06:32.498Z,35.20
2024-02-16T11:07:32.506Z,36.00
2024-02-16T11:08:32.458Z,36.60
2024-02-16T11:09:32.540Z,36.67
2024-02-16T11:10:33.662Z,36.61
2024-02-16T11:11:32.805Z,37.02
2024-02-16T11:12:32.732Z,37.26
2024-02-16T11:13:32.713Z,36.46
2024-02-16T11:14:32.761Z,35.80
2024-02-16T11:15:32.804Z,35.98
2024-02-16T11:16:32.903Z,35.57
2024-02-16T11:17:32.746Z,34.69
2024-02-16T11:18:33.153Z,33.76
2024-02-16T11:19:32.953Z,33.29
2024-02-16T11:20:32.959Z,32.81
2024-02-16T11:21:33.000Z,32.68
2024-02-16T11:22:32.987Z,32.80
2024-02-16T11:23:32.975Z,32.70
2024-02-16T11:24:33.058Z,32.39
2024-02-16T11:25:33.020Z,31.80
2024-02-16T11:26:33.125Z,31.18
2024-02-16T11:27:33.270Z,30.86
2024-02-16T11:28:33.143Z,30.34
2024-02-16T11:29:33.154Z,29.95
2024-02-16T11:30:33.243Z,29.39
2024-02-16T11:31:33.217Z,29.10
2024-02-16T11:32:33.505Z,29.70
2024-02-16T11:33:33.522Z,29.61
2024-02-16T11:34:33.460Z,29.92
2024-02-16T11:35:33.363Z,29.84
2024-02-16T11:36:33.586Z,30.67
2024-02-16T11:37:33.526Z,30.78
2024-02-16T11:38:33.501Z,30.44
2024-02-16T11:39:33.605Z,30.04
2024-02-16T11:40:33.591Z,29.67
2024-02-16T11:41:34.022Z,29.43
2024-02-16T11:42:33.674Z,29.87
2024-02-16T11:43:33.646Z,29.58
2024-02-16T11:44:33.640Z,29.46
2024-02-16T11:45:33.735Z,29.40
2024-02-16T11:46:33.782Z,29.54
2024-02-16T11:47:33.823Z,29.61
2024-02-16T11:48:33.996Z,30.18
2024-02-16T11:49:33.926Z,30.49
2024-02-16T11:50:33.777Z,30.29
2024-02-16T11:51:34.083Z,29.87
2024-02-16T11:52:33.973Z,29.92
2024-02-16T11:53:34.025Z,29.20
2024-02-16T11:54:34.156Z,29.67
2024-02-16T11:55:34.144Z,29.99
2024-02-16T11:56:34.142Z,29.12
2024-02-16T11:57:34.402Z,28.64
2024-02-16T11:58:34.269Z,28.49
2024-02-16T11:59:34.322Z,28.99
2024-02-16T12:00:34.477Z,28.85
2024-02-16T12:01:34.553Z,29.25
2024-02-16T12:02:34.394Z,29.80
2024-02-16T12:03:34.546Z,29.30
2024-02-16T12:04:39.510Z,29.57
2024-02-16T12:05:35.536Z,29.09
2024-02-16T12:06:34.744Z,29.03
2024-02-16T12:07:34.715Z,29.01
2024-02-16T12:08:34.520Z,28.59
2024-02-16T12:09:34.713Z,28.35
2024-02-16T12:10:34.566Z,28.78
2024-02-16T12:11:34.668Z,28.46
2024-02-16T12:12:34.884Z,28.40
2024-02-16T12:13:34.541Z,28.18
2024-02-16T12:14:34.589Z,27.89
2024-02-16T12:15:34.617Z,27.65
2024-02-16T12:16:34.577Z,27.32
2024-02-16T12:17:34.585Z,27.76
2024-02-16T12:18:34.713Z,28.55
2024-02-16T12:19:34.601Z,29.06
2024-02-16T12:20:34.622Z,28.91
2024-02-16T12:21:34.655Z,28.58
2024-02-16T12:22:34.644Z,28.70
2024-02-16T12:23:34.715Z,28.87
2024-02-16T12:24:34.731Z,28.90
2024-02-16T12:25:34.750Z,28.66
2024-02-16T12:26:34.859Z,28.86
2024-02-16T12:27:35.010Z,29.50
2024-02-16T12:28:34.891Z,29.25
2024-02-16T12:29:34.967Z,29.13
2024-02-16T12:30:35.152Z,29.05
2024-02-16T12:31:35.018Z,28.64
2024-02-16T12:32:35.087Z,28.56
2024-02-16T12:33:35.238Z,28.51
2024-02-16T12:34:35.147Z,28.49
2024-02-16T12:35:35.056Z,28.71
2024-02-16T12:36:35.137Z,29.17
2024-02-16T12:37:35.054Z,29.75
2024-02-16T12:38:35.055Z,29.96
2024-02-16T12:39:35.148Z,30.59
2024-02-16T12:40:35.128Z,30.26
2024-02-16T12:41:35.077Z,30.49
2024-02-16T12:42:35.095Z,30.57
2024-02-16T12:43:35.116Z,30.82
2024-02-16T12:44:35.148Z,30.72
2024-02-16T12:45:35.274Z,30.84
2024-02-16T12:46:35.311Z,31.05
2024-02-16T12:47:35.365Z,31.16
2024-02-16T12:48:35.525Z,31.01
2024-02-16T12:49:35.370Z,30.99
2024-02-16T12:50:35.308Z,31.27
2024-02-16T12:51:35.708Z,31.16
2024-02-16T12:52:37.237Z,31.09
2024-02-16T12:53:36.380Z,30.93
2024-02-16T12:54:35.403Z,31.09